createdAt,value
2018-07-12T00:02:26.254Z,14.74
2018-07-12T00:04:53.965Z,14.74
2018-07-12T00:07:21.687Z,14.81
2018-07-12T00:09:49.420Z,14.98
2018-07-12T00:12:17.128Z,15.10
2018-07-12T00:14:44.904Z,15.15
2018-07-12T00:17:12.618Z,15.25
2018-07-12T00:19:40.318Z,15.29
2018-07-12T00:22:08.044Z,15.28
2018-07-12T00:24:35.796Z,15.12
2018-07-12T00:27:03.488Z,15.25
2018-07-12T00:29:31.232Z,15.32
2018-07-12T00:31:58.956Z,15.32
2018-07-12T00:34:26.696Z,15.37
2018-07-12T00:36:55.071Z,15.32
2018-07-12T00:39:22.767Z,15.27
2018-07-12T00:41:50.558Z,15.21
2018-07-12T00:44:18.304Z,15.24
2018-07-12T00:46:46.046Z,15.25
2018-07-12T00:49:13.739Z,15.21
2018-07-12T00:51:41.467Z,15.15
2018-07-12T00:54:09.179Z,15.17
2018-07-12T00:56:36.911Z,15.21
2018-07-12T00:59:04.625Z,15.18
2018-07-12T01:01:32.348Z,15.18
2018-07-12T01:04:00.045Z,15.17
2018-07-12T01:06:27.781Z,15.15
2018-07-12T01:08:55.486Z,15.18
2018-07-12T01:11:23.208Z,15.15
2018-07-12T01:13:51.152Z,15.12
2018-07-12T01:16:18.865Z,15.07
2018-07-12T01:18:46.590Z,15.04
2018-07-12T01:21:14.308Z,15.03
2018-07-12T01:23:42.013Z,14.98
2018-07-12T01:26:09.721Z,14.96
2018-07-12T01:28:37.568Z,14.77
2018-07-12T01:31:05.279Z,14.73
2018-07-12T01:33:32.984Z,14.68
2018-07-12T01:36:00.729Z,14.68
2018-07-12T01:38:28.439Z,14.63
2018-07-12T01:40:56.143Z,14.63
2018-07-12T01:43:23.855Z,14.63
2018-07-12T01:45:51.660Z,14.63
2018-07-12T01:48:19.400Z,14.59
2018-07-12T01:50:47.116Z,14.57
2018-07-12T01:53:14.831Z,14.48
2018-07-12T01:55:42.535Z,14.40
2018-07-12T01:58:10.248Z,14.32
2018-07-12T02:00:38.062Z,14.27
2018-07-12T02:03:05.767Z,14.20
2018-07-12T02:05:33.556Z,14.14
2018-07-12T02:08:01.493Z,13.94
2018-07-12T02:10:29.356Z,13.74
2018-07-12T02:12:57.266Z,13.72
2018-07-12T02:15:24.972Z,13.71
2018-07-12T02:17:52.690Z,13.72
2018-07-12T02:20:20.455Z,13.74
2018-07-12T02:22:48.172Z,13.72
2018-07-12T02:25:15.913Z,13.64
2018-07-12T02:27:43.700Z,13.55
2018-07-12T02:30:11.374Z,13.56
2018-07-12T02:32:39.072Z,13.47
2018-07-12T02:35:06.887Z,13.44
2018-07-12T02:37:34.542Z,13.36
2018-07-12T02:40:02.501Z,13.32
2018-07-12T02:42:30.216Z,13.38
2018-07-12T02:44:57.911Z,13.39
2018-07-12T02:47:25.632Z,13.37
2018-07-12T02:49:53.356Z,13.36
2018-07-12T02:52:21.061Z,13.32
2018-07-12T02:54:48.760Z,13.23
2018-07-12T02:57:16.488Z,13.19
2018-07-12T02:59:44.193Z,13.17
2018-07-12T03:02:11.912Z,13.11
2018-07-12T03:04:39.631Z,13.12
2018-07-12T03:07:07.342Z,13.12
2018-07-12T03:09:35.055Z,13.09
2018-07-12T03:12:02.780Z,13.08
2018-07-12T03:14:30.490Z,13.01
2018-07-12T03:16:58.188Z,13.09
2018-07-12T03:19:25.912Z,13.13
2018-07-12T03:21:53.902Z,13.07
2018-07-12T03:24:21.637Z,13.13
2018-07-12T03:26:49.443Z,13.20
2018-07-12T03:29:17.137Z,13.23
2018-07-12T03:31:44.852Z,13.26
2018-07-12T03:34:12.557Z,13.25
2018-07-12T03:36:40.288Z,13.33
2018-07-12T03:39:08.028Z,13.36
2018-07-12T03:41:35.740Z,13.28
2018-07-12T03:44:03.515Z,13.41
2018-07-12T03:46:31.233Z,13.32
2018-07-12T03:48:59.012Z,13.35
2018-07-12T03:51:26.715Z,13.47
2018-07-12T03:53:54.420Z,13.44
2018-07-12T03:56:22.391Z,13.50
2018-07-12T03:58:50.091Z,13.56
2018-07-12T04:01:17.840Z,13.61
2018-07-12T04:03:45.549Z,13.53
2018-07-12T04:06:13.265Z,13.44
2018-07-12T04:08:41.129Z,13.45
2018-07-12T04:11:08.831Z,13.49
2018-07-12T04:13:36.772Z,13.53
2018-07-12T04:16:06.047Z,13.60
2018-07-12T04:18:33.755Z,13.72
2018-07-12T04:21:01.484Z,13.77
2018-07-12T04:23:29.192Z,13.86
2018-07-12T04:25:56.915Z,13.68
2018-07-12T04:28:24.629Z,13.69
2018-07-12T04:30:52.359Z,13.76
2018-07-12T04:33:20.270Z,13.76
2018-07-12T04:35:47.976Z,13.76
2018-07-12T04:38:15.700Z,13.65
2018-07-12T04:40:43.403Z,13.72
2018-07-12T04:43:11.108Z,13.82
2018-07-12T04:45:38.828Z,13.77
2018-07-12T04:48:06.531Z,13.74
2018-07-12T04:50:34.256Z,13.82
2018-07-12T04:53:01.958Z,13.89
2018-07-12T04:55:29.660Z,13.93
2018-07-12T04:57:57.445Z,14.11
2018-07-12T05:00:25.149Z,14.14
2018-07-12T05:02:52.865Z,14.32
2018-07-12T05:05:20.577Z,14.48
2018-07-12T05:07:48.340Z,14.55
2018-07-12T05:10:16.060Z,14.50
2018-07-12T05:12:43.760Z,14.54
2018-07-12T05:15:11.479Z,14.53
2018-07-12T05:17:39.197Z,14.60
2018-07-12T05:20:06.893Z,14.67
2018-07-12T05:22:34.619Z,14.81
2018-07-12T05:25:02.523Z,14.82
2018-07-12T05:27:30.240Z,14.85
2018-07-12T05:29:57.943Z,14.92
2018-07-12T05:32:25.652Z,14.96
2018-07-12T05:34:53.368Z,15.03
2018-07-12T05:37:22.672Z,15.11
2018-07-12T05:39:51.997Z,15.01
2018-07-12T05:42:21.312Z,14.93
2018-07-12T05:44:50.623Z,15.00
2018-07-12T05:47:20.015Z,15.11
2018-07-12T05:49:49.327Z,15.35
2018-07-12T05:52:18.664Z,15.58
2018-07-12T05:54:48.013Z,15.73
2018-07-12T05:57:17.347Z,15.88
2018-07-12T05:59:46.769Z,16.00
2018-07-12T06:02:22.863Z,16.17
2018-07-12T06:04:52.250Z,16.31
2018-07-12T06:07:26.780Z,16.37
2018-07-12T06:09:56.109Z,16.45
2018-07-12T06:12:25.541Z,16.50
2018-07-12T06:14:54.888Z,16.69
2018-07-12T06:17:24.240Z,16.55
2018-07-12T06:19:53.567Z,16.57
2018-07-12T06:22:22.891Z,16.54
2018-07-12T06:24:52.260Z,16.62
2018-07-12T06:27:21.609Z,16.77
2018-07-12T06:29:50.981Z,16.99
2018-07-12T06:32:20.299Z,17.09
2018-07-12T06:34:49.631Z,17.26
2018-07-12T06:37:19.040Z,17.41
2018-07-12T06:39:48.278Z,17.46
2018-07-12T06:42:17.665Z,17.52
2018-07-12T06:44:47.071Z,17.52
2018-07-12T06:47:16.405Z,17.68
2018-07-12T06:49:45.708Z,18.01
2018-07-12T06:52:15.168Z,18.41
2018-07-12T06:54:44.500Z,18.65
2018-07-12T06:57:13.848Z,18.82
2018-07-12T06:59:43.231Z,18.69
2018-07-12T07:02:12.563Z,18.72
2018-07-12T07:04:41.872Z,18.75
2018-07-12T07:07:11.844Z,18.87
2018-07-12T07:09:41.184Z,18.95
2018-07-12T07:12:10.514Z,19.06
2018-07-12T07:14:39.929Z,19.19
2018-07-12T07:17:09.329Z,19.42
2018-07-12T07:19:38.662Z,19.53
2018-07-12T07:22:08.028Z,19.74
2018-07-12T07:24:37.467Z,19.78
2018-07-12T07:27:07.008Z,19.87
2018-07-12T07:29:36.332Z,19.85
2018-07-12T07:32:05.755Z,20.02
2018-07-12T07:34:36.067Z,20.08
2018-07-12T07:37:05.563Z,20.12
2018-07-12T07:39:34.667Z,20.31
2018-07-12T07:42:03.802Z,20.41
2018-07-12T07:44:33.156Z,20.23
2018-07-12T07:47:02.496Z,20.11
2018-07-12T07:49:31.835Z,20.59
2018-07-12T07:52:01.306Z,20.94
2018-07-12T07:54:30.603Z,21.20
2018-07-12T07:57:00.003Z,21.14
2018-07-12T07:59:29.280Z,21.12
2018-07-12T08:01:58.624Z,21.33
2018-07-12T08:04:27.936Z,21.38
2018-07-12T08:06:57.257Z,21.53
2018-07-12T08:09:26.638Z,21.20
2018-07-12T08:11:55.908Z,21.40
2018-07-12T08:14:25.236Z,21.70
2018-07-12T08:16:54.548Z,21.42
2018-07-12T08:19:23.901Z,21.16
2018-07-12T08:22:03.864Z,20.91
2018-07-12T08:24:33.468Z,20.68
2018-07-12T08:27:03.077Z,20.50
2018-07-12T08:29:33.108Z,20.34
2018-07-12T08:32:03.737Z,20.25
2018-07-12T08:34:33.321Z,20.23
2018-07-12T08:37:02.804Z,20.57
2018-07-12T08:39:32.073Z,20.66
2018-07-12T08:42:01.384Z,20.94
2018-07-12T08:44:30.756Z,21.22
2018-07-12T08:47:00.064Z,21.37
2018-07-12T08:49:29.392Z,21.67
2018-07-12T08:51:58.697Z,22.07
2018-07-12T08:54:28.080Z,22.07
2018-07-12T08:56:57.410Z,22.18
2018-07-12T08:59:26.796Z,22.39
2018-07-12T09:01:56.263Z,22.71
2018-07-12T09:04:25.571Z,22.47
2018-07-12T09:06:54.891Z,22.54
2018-07-12T09:09:24.212Z,22.76
2018-07-12T09:11:53.568Z,23.05
2018-07-12T09:14:22.877Z,23.40
2018-07-12T09:16:52.208Z,23.26
2018-07-12T09:19:21.520Z,23.19
2018-07-12T09:21:50.883Z,22.92
2018-07-12T09:24:20.372Z,23.21
2018-07-12T09:26:49.743Z,22.84
2018-07-12T09:29:19.179Z,22.90
2018-07-12T09:31:48.439Z,23.23
2018-07-12T09:34:17.539Z,23.53
2018-07-12T09:36:47.091Z,23.45
2018-07-12T09:39:16.408Z,23.63
2018-07-12T09:41:45.775Z,24.01
2018-07-12T09:44:15.081Z,24.14
2018-07-12T09:46:44.399Z,24.30
2018-07-12T09:49:13.916Z,24.24
2018-07-12T09:51:43.141Z,24.22
2018-07-12T09:54:12.457Z,24.30
2018-07-12T09:56:52.807Z,24.64
2018-07-12T09:59:22.162Z,24.86
2018-07-12T10:01:56.881Z,24.75
2018-07-12T10:04:27.763Z,24.93
2018-07-12T10:09:40.932Z,25.02
2018-07-12T10:12:11.327Z,25.29
2018-07-12T10:14:45.849Z,25.23
2018-07-12T10:17:20.489Z,24.57
2018-07-12T10:19:49.828Z,24.49
2018-07-12T10:22:19.168Z,24.66
2018-07-12T10:24:48.487Z,24.70
2018-07-12T10:27:17.815Z,24.57
2018-07-12T10:29:47.203Z,24.93
2018-07-12T10:32:16.458Z,25.06
2018-07-12T10:34:46.045Z,25.57
2018-07-12T10:37:15.359Z,25.98
2018-07-12T10:39:44.685Z,25.39
2018-07-12T10:42:14.107Z,25.74
2018-07-12T10:44:43.716Z,25.17
2018-07-12T10:47:13.057Z,24.91
2018-07-12T10:49:42.373Z,24.54
2018-07-12T10:52:11.675Z,24.29
2018-07-12T10:54:40.992Z,24.23
2018-07-12T10:57:10.351Z,24.24
2018-07-12T10:59:39.396Z,24.70
2018-07-12T11:02:08.712Z,25.19
2018-07-12T11:04:38.219Z,24.76
2018-07-12T11:07:07.503Z,24.71
2018-07-12T11:09:36.828Z,24.71
2018-07-12T11:12:06.211Z,24.80
2018-07-12T11:14:35.521Z,25.36
2018-07-12T11:17:04.917Z,25.06
2018-07-12T11:19:34.356Z,24.93
2018-07-12T11:22:03.723Z,24.94
2018-07-12T11:24:33.149Z,25.03
2018-07-12T11:27:02.464Z,24.81
2018-07-12T11:29:49.409Z,24.86
2018-07-12T11:32:19.207Z,24.89
2018-07-12T11:34:48.556Z,24.98
2018-07-12T11:37:26.216Z,25.54
2018-07-12T11:39:55.629Z,26.28
2018-07-12T11:42:25.016Z,26.16
2018-07-12T11:44:54.325Z,25.96
2018-07-12T11:47:23.661Z,25.37
2018-07-12T11:49:52.990Z,25.27
2018-07-12T11:52:22.075Z,25.06
2018-07-12T11:54:51.434Z,25.19
2018-07-12T11:57:20.699Z,25.70
2018-07-12T11:59:50.017Z,26.15
2018-07-12T12:02:19.415Z,25.89
2018-07-12T12:04:48.751Z,25.49
2018-07-12T12:07:18.580Z,25.43
2018-07-12T12:09:47.935Z,25.40
2018-07-12T12:12:18.272Z,25.13
2018-07-12T12:14:47.627Z,25.23
2018-07-12T12:17:16.965Z,25.28
2018-07-12T12:19:46.359Z,25.60
2018-07-12T12:22:15.670Z,25.63
2018-07-12T12:24:45.069Z,25.97
2018-07-12T12:27:14.378Z,25.71
2018-07-12T12:29:43.788Z,26.00
2018-07-12T12:32:13.096Z,26.41
2018-07-12T12:34:42.433Z,26.81
2018-07-12T12:37:11.813Z,26.35
2018-07-12T12:39:41.131Z,25.99
2018-07-12T12:42:10.506Z,26.35
2018-07-12T12:44:39.836Z,26.94
2018-07-12T12:47:09.176Z,27.35
2018-07-12T12:49:38.495Z,27.61
2018-07-12T12:52:07.881Z,28.34
2018-07-12T12:54:37.188Z,28.52
2018-07-12T12:57:06.513Z,28.46
2018-07-12T12:59:35.883Z,28.61
2018-07-12T13:02:05.294Z,28.34
2018-07-12T13:04:34.612Z,28.15
2018-07-12T13:07:03.941Z,28.30
2018-07-12T13:09:33.251Z,28.65
2018-07-12T13:12:02.653Z,28.76
2018-07-12T13:14:31.966Z,28.98
2018-07-12T13:17:01.304Z,29.10
2018-07-12T13:19:30.644Z,29.35
2018-07-12T13:22:00.200Z,29.50
2018-07-12T13:24:29.532Z,28.96
2018-07-12T13:26:59.257Z,28.02
2018-07-12T13:29:28.579Z,28.26
2018-07-12T13:31:57.993Z,28.30
2018-07-12T13:34:27.279Z,27.98
2018-07-12T13:36:56.613Z,27.78
2018-07-12T13:39:25.972Z,27.66
2018-07-12T13:41:55.336Z,28.21
2018-07-12T13:44:25.427Z,27.48
2018-07-12T13:46:55.657Z,28.33
2018-07-12T13:49:24.989Z,29.25
2018-07-12T13:51:54.393Z,29.66
2018-07-12T13:54:23.772Z,29.43
2018-07-12T13:56:53.083Z,29.89
2018-07-12T13:59:22.463Z,29.70
2018-07-12T14:01:51.867Z,29.64
2018-07-12T14:04:21.275Z,29.38
2018-07-12T14:06:50.617Z,29.33
2018-07-12T14:09:19.963Z,29.09
2018-07-12T14:11:49.331Z,30.16
2018-07-12T14:14:18.643Z,30.06
2018-07-12T14:16:48.080Z,29.33
2018-07-12T14:19:17.421Z,30.47
2018-07-12T14:21:46.791Z,31.81
2018-07-12T14:24:16.167Z,31.81
2018-07-12T14:26:45.483Z,31.51
2018-07-12T14:29:14.817Z,31.72
2018-07-12T14:31:44.161Z,32.85
2018-07-12T14:34:13.563Z,33.99
2018-07-12T14:36:42.949Z,34.71
2018-07-12T14:39:12.267Z,34.93
2018-07-12T14:41:41.584Z,34.04
2018-07-12T14:44:10.932Z,34.73
2018-07-12T14:46:40.256Z,35.30
2018-07-12T14:49:09.580Z,35.37
2018-07-12T14:51:38.932Z,33.34
2018-07-12T14:54:08.256Z,30.94
2018-07-12T14:56:37.580Z,30.00
2018-07-12T14:59:06.963Z,29.60
2018-07-12T15:01:36.335Z,28.97
2018-07-12T15:04:05.619Z,28.35
2018-07-12T15:06:34.998Z,28.06
2018-07-12T15:09:05.270Z,27.21
2018-07-12T15:11:34.528Z,27.24
2018-07-12T15:14:03.939Z,27.21
2018-07-12T15:16:33.265Z,27.11
2018-07-12T15:19:03.042Z,26.84
2018-07-12T15:21:32.304Z,26.87
2018-07-12T15:24:01.681Z,26.78
2018-07-12T15:26:31.047Z,26.79
2018-07-12T15:29:00.348Z,26.63
2018-07-12T15:31:29.753Z,26.43
2018-07-12T15:33:59.035Z,26.26
2018-07-12T15:36:28.407Z,26.17
2018-07-12T15:38:57.728Z,26.18
2018-07-12T15:41:27.044Z,26.11
2018-07-12T15:43:56.145Z,26.06
2018-07-12T15:46:25.458Z,25.76
2018-07-12T15:48:54.775Z,25.56
2018-07-12T15:51:24.108Z,25.14
2018-07-12T15:53:53.420Z,24.66
2018-07-12T15:56:22.741Z,24.86
2018-07-12T15:58:52.350Z,24.70
2018-07-12T16:01:21.427Z,24.62
2018-07-12T16:03:50.756Z,24.63
2018-07-12T16:06:20.108Z,24.14
2018-07-12T16:08:49.443Z,23.42
2018-07-12T16:11:18.768Z,23.45
2018-07-12T16:13:48.154Z,23.32
2018-07-12T16:16:17.451Z,23.19
2018-07-12T16:18:46.769Z,23.18
2018-07-12T16:21:16.086Z,23.09
2018-07-12T16:23:45.413Z,23.09
2018-07-12T16:26:14.771Z,22.88
2018-07-12T16:28:44.139Z,22.75
2018-07-12T16:31:13.516Z,22.92
2018-07-12T16:33:42.832Z,23.01
2018-07-12T16:36:12.144Z,22.81
2018-07-12T16:38:41.491Z,23.12
2018-07-12T16:41:10.803Z,23.08
2018-07-12T16:43:40.133Z,23.34
2018-07-12T16:46:09.449Z,23.22
2018-07-12T16:48:38.825Z,23.74
2018-07-12T16:51:08.147Z,23.73
2018-07-12T16:53:37.803Z,24.15
2018-07-12T16:56:07.377Z,24.45
2018-07-12T16:58:36.803Z,24.47
2018-07-12T17:01:06.313Z,24.97
2018-07-12T17:03:35.640Z,25.23
2018-07-12T17:06:04.997Z,26.06
2018-07-12T17:08:34.352Z,25.59
2018-07-12T17:11:03.700Z,24.89
2018-07-12T17:13:33.071Z,24.43
2018-07-12T17:16:02.392Z,23.86
2018-07-12T17:18:31.704Z,23.73
2018-07-12T17:21:01.048Z,23.24
2018-07-12T17:23:30.397Z,23.09
2018-07-12T17:25:59.684Z,22.98
2018-07-12T17:28:29.028Z,22.87
2018-07-12T17:30:58.422Z,22.87
2018-07-12T17:33:27.897Z,22.66
2018-07-12T17:35:57.174Z,22.64
2018-07-12T17:38:26.520Z,22.56
2018-07-12T17:40:55.850Z,22.43
2018-07-12T17:43:25.156Z,22.40
2018-07-12T17:45:54.521Z,22.36
2018-07-12T17:48:23.858Z,22.38
2018-07-12T17:50:53.229Z,22.44
2018-07-12T17:53:22.646Z,22.34
2018-07-12T17:55:51.980Z,22.35
2018-07-12T17:58:21.331Z,22.35
2018-07-12T18:00:50.673Z,22.29
2018-07-12T18:03:21.943Z,22.38
2018-07-12T18:05:51.297Z,22.37
2018-07-12T18:08:20.622Z,22.37
2018-07-12T18:10:49.950Z,22.50
2018-07-12T18:13:19.284Z,22.46
2018-07-12T18:15:48.636Z,22.45
2018-07-12T18:18:18.021Z,22.55
2018-07-12T18:20:47.380Z,22.54
2018-07-12T18:23:16.873Z,22.63
2018-07-12T18:25:46.242Z,22.70
2018-07-12T18:28:15.601Z,22.68
2018-07-12T18:30:44.954Z,22.69
2018-07-12T18:33:14.291Z,22.69
2018-07-12T18:35:43.675Z,22.64
2018-07-12T18:38:13.024Z,22.47
2018-07-12T18:40:42.361Z,22.38
2018-07-12T18:43:12.985Z,22.40
2018-07-12T18:45:42.445Z,22.26
2018-07-12T18:49:39.601Z,22.21
2018-07-12T18:52:10.060Z,22.10
2018-07-12T18:54:39.767Z,22.10
2018-07-12T18:57:09.162Z,22.04
2018-07-12T18:59:38.684Z,22.07
2018-07-12T19:02:08.573Z,22.02
2018-07-12T19:04:38.063Z,21.47
2018-07-12T19:07:07.847Z,22.03
2018-07-12T19:09:37.722Z,22.06
2018-07-12T19:12:07.926Z,22.05
2018-07-12T19:14:37.886Z,21.91
2018-07-12T19:17:07.949Z,21.88
2018-07-12T19:19:38.175Z,21.91
2018-07-12T19:22:07.810Z,21.90
2018-07-12T19:24:37.630Z,21.77
2018-07-12T19:27:07.404Z,21.71
2018-07-12T19:29:37.041Z,21.74
2018-07-12T19:32:08.214Z,21.55
2018-07-12T19:34:39.584Z,21.45
2018-07-12T19:37:10.064Z,21.33
2018-07-12T19:39:39.830Z,21.37
2018-07-12T19:42:09.477Z,21.33
2018-07-12T19:44:39.332Z,21.17
2018-07-12T19:47:09.167Z,21.22
2018-07-12T19:49:39.810Z,21.23
2018-07-12T19:52:09.777Z,21.29
2018-07-12T19:54:40.534Z,21.21
2018-07-12T19:57:10.217Z,21.25
2018-07-12T19:59:40.780Z,21.18
2018-07-12T20:02:11.032Z,21.09
2018-07-12T20:04:42.611Z,21.04
2018-07-12T20:07:13.237Z,21.02
2018-07-12T20:09:45.083Z,21.01
2018-07-12T20:12:15.641Z,20.88
2018-07-12T20:14:47.074Z,20.82
2018-07-12T20:17:16.770Z,20.79
2018-07-12T20:19:47.211Z,20.78
2018-07-12T20:22:17.017Z,20.72
2018-07-12T20:24:46.648Z,20.70
2018-07-12T20:27:16.657Z,20.62
2018-07-12T20:29:46.398Z,20.60
2018-07-12T20:32:17.093Z,20.63
2018-07-12T20:34:46.847Z,20.56
2018-07-12T20:37:16.320Z,20.60
2018-07-12T20:39:45.669Z,20.44
2018-07-12T20:42:15.296Z,20.47
2018-07-12T20:44:44.648Z,20.53
2018-07-12T20:47:13.923Z,20.48
2018-07-12T20:49:43.303Z,20.50
2018-07-12T20:52:12.645Z,20.54
2018-07-12T20:54:42.031Z,20.51
2018-07-12T20:57:11.411Z,20.53
2018-07-12T20:59:40.899Z,20.43
2018-07-12T21:02:10.460Z,20.50
2018-07-12T21:04:39.788Z,20.53
2018-07-12T21:07:09.101Z,20.51
2018-07-12T21:09:38.649Z,20.45
2018-07-12T21:12:08.012Z,20.31
2018-07-12T21:14:37.364Z,20.09
2018-07-12T21:17:06.692Z,20.14
2018-07-12T21:19:35.997Z,20.23
2018-07-12T21:22:05.420Z,20.19
2018-07-12T21:24:34.756Z,20.20
2018-07-12T21:27:04.140Z,20.20
2018-07-12T21:29:33.512Z,20.10
2018-07-12T21:32:02.971Z,20.05
2018-07-12T21:34:32.312Z,20.07
2018-07-12T21:37:01.821Z,20.08
2018-07-12T21:39:31.136Z,20.05
2018-07-12T21:42:00.510Z,20.10
2018-07-12T21:44:29.929Z,20.07
2018-07-12T21:46:59.328Z,20.02
2018-07-12T21:49:28.652Z,19.98
2018-07-12T21:51:58.082Z,19.91
2018-07-12T21:54:27.496Z,19.88
2018-07-12T21:56:56.899Z,19.87
2018-07-12T21:59:26.229Z,19.84
2018-07-12T22:01:55.572Z,19.82
2018-07-12T22:04:24.915Z,19.74
2018-07-12T22:07:12.935Z,19.72
2018-07-12T22:09:42.249Z,19.69
2018-07-12T22:12:11.556Z,19.72
2018-07-12T22:14:40.884Z,19.72
2018-07-12T22:17:10.208Z,19.71
2018-07-12T22:19:39.548Z,19.68
2018-07-12T22:22:08.863Z,19.67
2018-07-12T22:24:38.241Z,19.69
2018-07-12T22:27:07.544Z,19.71
2018-07-12T22:29:36.875Z,19.66
2018-07-12T22:32:06.379Z,19.65
2018-07-12T22:34:35.687Z,19.65
2018-07-12T22:37:05.025Z,19.41
2018-07-12T22:39:34.464Z,19.42
2018-07-12T22:42:03.789Z,19.48
2018-07-12T22:44:33.094Z,19.47
2018-07-12T22:47:02.442Z,19.41
2018-07-12T22:49:31.757Z,19.45
2018-07-12T22:52:01.076Z,19.45
2018-07-12T22:54:30.448Z,19.40
2018-07-12T22:56:59.763Z,19.34
2018-07-12T22:59:29.084Z,19.29
2018-07-12T23:01:58.390Z,19.26
2018-07-12T23:04:27.826Z,19.32
2018-07-12T23:06:57.203Z,19.12
2018-07-12T23:09:26.476Z,19.11
2018-07-12T23:11:55.807Z,19.14
2018-07-12T23:14:25.162Z,18.99
2018-07-12T23:16:54.420Z,18.97
2018-07-12T23:19:24.677Z,18.97
2018-07-12T23:21:53.967Z,18.97
2018-07-12T23:24:23.300Z,18.80
2018-07-12T23:26:52.887Z,18.80
2018-07-12T23:29:22.199Z,18.71
2018-07-12T23:31:51.548Z,18.61
2018-07-12T23:34:20.879Z,18.58
2018-07-12T23:36:50.319Z,18.56
2018-07-12T23:39:19.671Z,18.53
2018-07-12T23:41:48.707Z,18.49
2018-07-12T23:44:18.060Z,18.39
2018-07-12T23:46:47.537Z,18.30
2018-07-12T23:49:16.923Z,18.17
2018-07-12T23:51:46.417Z,18.11
2018-07-12T23:54:15.713Z,18.05
2018-07-12T23:56:45.043Z,18.05
2018-07-12T23:59:14.408Z,18.04
